createdAt,value
2018-12-08T00:00:45.588Z,11.40
2018-12-08T00:03:11.876Z,11.30
2018-12-08T00:05:38.791Z,11.10
2018-12-08T00:08:05.033Z,11.00
2018-12-08T00:10:31.291Z,10.90
2018-12-08T00:12:58.297Z,10.80
2018-12-08T00:15:24.604Z,10.80
2018-12-08T00:17:50.848Z,10.80
2018-12-08T00:20:17.106Z,10.70
2018-12-08T00:22:43.383Z,10.60
2018-12-08T00:25:09.656Z,10.50
2018-12-08T00:27:35.909Z,10.30
2018-12-08T00:30:02.745Z,10.30
2018-12-08T00:32:29.715Z,10.40
2018-12-08T00:34:55.939Z,10.40
2018-12-08T00:37:22.188Z,10.30
2018-12-08T00:39:48.452Z,10.30
2018-12-08T00:42:14.823Z,10.20
2018-12-08T00:44:41.053Z,10.10
2018-12-08T00:47:07.284Z,10.20
2018-12-08T00:49:33.522Z,10.20
2018-12-08T00:51:59.812Z,10.10
2018-12-08T00:54:26.780Z,10.00
2018-12-08T00:56:53.016Z,10.00
2018-12-08T00:59:19.229Z,10.00
2018-12-08T01:01:45.467Z,9.90
2018-12-08T01:04:11.718Z,9.90
2018-12-08T01:06:37.953Z,9.80
2018-12-08T01:09:04.241Z,9.90
2018-12-08T01:11:30.489Z,9.90
2018-12-08T01:13:56.743Z,10.00
2018-12-08T01:16:22.998Z,10.00
2018-12-08T01:18:49.982Z,9.90
2018-12-08T01:21:16.956Z,10.00
2018-12-08T01:23:43.294Z,10.00
2018-12-08T01:26:09.540Z,9.90
2018-12-08T01:28:35.790Z,9.90
2018-12-08T01:31:02.149Z,9.90
2018-12-08T01:33:28.414Z,9.80
2018-12-08T01:35:55.399Z,9.70
2018-12-08T01:38:22.396Z,9.70
2018-12-08T01:40:48.861Z,9.70
2018-12-08T01:43:15.819Z,9.70
2018-12-08T01:45:42.057Z,9.70
2018-12-08T01:48:08.325Z,9.70
2018-12-08T01:50:34.558Z,9.60
2018-12-08T01:53:00.814Z,9.60
2018-12-08T01:55:27.792Z,9.60
2018-12-08T01:57:54.021Z,9.60
2018-12-08T02:00:20.275Z,9.70
2018-12-08T02:02:46.512Z,9.70
2018-12-08T02:05:12.771Z,9.80
2018-12-08T02:07:39.740Z,9.60
2018-12-08T02:10:05.985Z,9.60
2018-12-08T02:12:32.244Z,9.60
2018-12-08T02:14:58.486Z,9.50
2018-12-08T02:17:25.499Z,9.40
2018-12-08T02:19:51.763Z,9.40
2018-12-08T02:22:18.085Z,9.40
2018-12-08T02:24:44.309Z,9.40
2018-12-08T02:27:10.621Z,9.40
2018-12-08T02:29:37.188Z,9.50
2018-12-08T02:32:03.467Z,9.50
2018-12-08T02:34:29.689Z,9.50
2018-12-08T02:36:56.216Z,9.50
2018-12-08T02:39:22.449Z,9.50
2018-12-08T02:41:48.725Z,9.40
2018-12-08T02:44:15.165Z,9.50
2018-12-08T02:46:42.129Z,9.50
2018-12-08T02:49:09.088Z,9.50
2018-12-08T02:51:35.406Z,9.50
2018-12-08T02:54:02.428Z,9.40
2018-12-08T02:56:29.404Z,9.50
2018-12-08T02:58:55.695Z,9.50
2018-12-08T03:01:21.917Z,9.50
2018-12-08T03:03:48.150Z,9.40
2018-12-08T03:06:16.349Z,9.40
2018-12-08T03:08:42.579Z,9.40
2018-12-08T03:11:08.812Z,9.50
2018-12-08T03:13:35.039Z,9.50
2018-12-08T03:16:01.259Z,9.50
2018-12-08T03:18:27.533Z,9.50
2018-12-08T03:20:53.747Z,9.60
2018-12-08T03:23:19.976Z,9.60
2018-12-08T03:25:46.264Z,9.60
2018-12-08T03:28:12.530Z,9.70
2018-12-08T03:30:38.779Z,9.70
2018-12-08T03:33:05.024Z,9.70
2018-12-08T03:35:32.028Z,9.60
2018-12-08T03:37:58.269Z,9.60
2018-12-08T03:40:24.497Z,9.40
2018-12-08T03:42:50.793Z,9.40
2018-12-08T03:45:17.036Z,9.30
2018-12-08T03:47:43.243Z,9.30
2018-12-08T03:50:09.539Z,9.30
2018-12-08T03:52:35.752Z,9.40
2018-12-08T03:55:02.020Z,9.40
2018-12-08T03:57:28.265Z,9.30
2018-12-08T03:59:54.529Z,9.30
2018-12-08T04:02:20.804Z,9.30
2018-12-08T04:04:47.055Z,9.30
2018-12-08T04:07:13.335Z,9.30
2018-12-08T04:09:40.336Z,9.20
2018-12-08T04:12:06.613Z,9.20
2018-12-08T04:14:33.693Z,9.40
2018-12-08T04:17:00.037Z,9.40
2018-12-08T04:19:26.317Z,9.50
2018-12-08T04:21:53.379Z,9.50
2018-12-08T04:24:19.660Z,9.50
2018-12-08T04:26:45.900Z,9.40
2018-12-08T04:29:12.129Z,9.30
2018-12-08T04:31:38.384Z,9.40
2018-12-08T04:34:04.632Z,9.40
2018-12-08T04:36:30.911Z,9.40
2018-12-08T04:38:57.168Z,9.40
2018-12-08T04:41:24.179Z,9.40
2018-12-08T04:43:50.419Z,9.40
2018-12-08T04:46:16.648Z,9.40
2018-12-08T04:48:42.917Z,9.40
2018-12-08T04:51:09.980Z,9.20
2018-12-08T04:53:36.216Z,9.20
2018-12-08T04:56:03.216Z,9.20
2018-12-08T04:58:29.477Z,9.30
2018-12-08T05:00:55.703Z,9.00
2018-12-08T05:03:22.705Z,9.30
2018-12-08T05:05:48.964Z,9.20
2018-12-08T05:08:15.196Z,9.30
2018-12-08T05:10:42.218Z,9.20
2018-12-08T05:13:08.447Z,9.20
2018-12-08T05:15:34.719Z,9.20
2018-12-08T05:18:01.056Z,9.20
2018-12-08T05:20:27.315Z,9.30
2018-12-08T05:22:53.557Z,9.30
2018-12-08T05:25:19.806Z,9.30
2018-12-08T05:27:46.859Z,9.10
2018-12-08T05:30:13.887Z,9.20
2018-12-08T05:32:40.893Z,9.30
2018-12-08T05:35:07.152Z,9.30
2018-12-08T05:37:34.179Z,9.30
2018-12-08T05:40:00.541Z,9.30
2018-12-08T05:42:27.532Z,9.30
2018-12-08T05:44:53.809Z,9.30
2018-12-08T05:47:20.821Z,9.30
2018-12-08T05:49:47.089Z,9.30
2018-12-08T05:52:14.093Z,9.20
2018-12-08T05:54:40.365Z,9.20
2018-12-08T05:57:07.358Z,9.10
2018-12-08T05:59:33.681Z,9.10
2018-12-08T06:01:59.935Z,9.10
2018-12-08T06:04:26.201Z,9.10
2018-12-08T06:06:53.164Z,9.10
2018-12-08T06:09:19.468Z,9.10
2018-12-08T06:11:46.473Z,9.10
2018-12-08T06:14:12.709Z,9.10
2018-12-08T06:16:38.974Z,9.20
2018-12-08T06:19:05.968Z,9.20
2018-12-08T06:21:33.211Z,9.20
2018-12-08T06:23:59.464Z,9.10
2018-12-08T06:26:25.751Z,9.10
2018-12-08T06:28:52.044Z,9.10
2018-12-08T06:31:19.104Z,9.00
2018-12-08T06:33:45.335Z,9.00
2018-12-08T06:36:11.632Z,9.10
2018-12-08T06:38:37.848Z,9.00
2018-12-08T06:41:04.120Z,9.00
2018-12-08T06:43:31.120Z,9.10
2018-12-08T06:45:58.340Z,9.00
2018-12-08T06:48:24.597Z,9.00
2018-12-08T06:50:50.909Z,9.00
2018-12-08T06:53:17.248Z,8.90
2018-12-08T06:55:43.503Z,8.90
2018-12-08T06:58:10.502Z,8.90
2018-12-08T07:00:36.786Z,8.90
2018-12-08T07:03:03.824Z,8.80
2018-12-08T07:05:30.093Z,8.80
2018-12-08T07:07:56.401Z,8.80
2018-12-08T07:10:22.695Z,8.90
2018-12-08T07:12:49.034Z,8.90
2018-12-08T07:15:15.300Z,9.00
2018-12-08T07:17:41.580Z,9.00
2018-12-08T07:20:07.837Z,8.90
2018-12-08T07:22:34.142Z,8.90
2018-12-08T07:25:00.426Z,8.90
2018-12-08T07:27:27.376Z,8.70
2018-12-08T07:29:53.690Z,8.70
2018-12-08T07:32:19.953Z,8.80
2018-12-08T07:34:46.280Z,8.80
2018-12-08T07:37:12.589Z,8.70
2018-12-08T07:39:38.815Z,8.70
2018-12-08T07:42:05.097Z,8.70
2018-12-08T07:44:31.351Z,8.80
2018-12-08T07:46:58.328Z,8.80
2018-12-08T07:49:24.613Z,8.80
2018-12-08T07:51:50.872Z,8.80
2018-12-08T07:54:17.989Z,8.80
2018-12-08T07:56:44.257Z,8.90
2018-12-08T07:59:10.540Z,8.90
2018-12-08T08:01:36.809Z,9.00
2018-12-08T08:04:03.107Z,9.10
2018-12-08T08:06:30.107Z,9.00
2018-12-08T08:08:56.402Z,8.90
2018-12-08T08:11:22.725Z,8.90
2018-12-08T08:13:48.965Z,8.90
2018-12-08T08:16:15.205Z,8.90
2018-12-08T08:18:41.498Z,9.00
2018-12-08T08:21:07.798Z,9.00
2018-12-08T08:23:34.044Z,8.90
2018-12-08T08:26:01.088Z,8.70
2018-12-08T08:28:27.496Z,8.70
2018-12-08T08:30:53.884Z,8.60
2018-12-08T08:33:20.126Z,8.80
2018-12-08T08:35:46.429Z,8.70
2018-12-08T08:38:13.460Z,8.70
2018-12-08T08:40:39.792Z,8.70
2018-12-08T08:43:06.840Z,8.80
2018-12-08T08:45:33.197Z,8.80
2018-12-08T08:47:59.732Z,8.80
2018-12-08T08:50:25.997Z,8.80
2018-12-08T08:52:53.056Z,8.70
2018-12-08T08:55:21.141Z,8.70
2018-12-08T08:57:47.436Z,8.60
2018-12-08T09:00:13.765Z,8.60
2018-12-08T09:02:40.007Z,8.60
2018-12-08T09:05:06.351Z,8.70
2018-12-08T09:07:33.385Z,8.90
2018-12-08T09:10:00.451Z,8.90
2018-12-08T09:12:27.529Z,8.90
2018-12-08T09:14:54.193Z,9.00
2018-12-08T09:17:20.469Z,8.70
2018-12-08T09:19:47.491Z,8.80
2018-12-08T09:22:14.502Z,8.90
2018-12-08T09:24:41.508Z,8.90
2018-12-08T09:27:07.805Z,8.90
2018-12-08T09:29:34.384Z,8.90
2018-12-08T09:32:00.685Z,8.90
2018-12-08T09:34:26.929Z,8.90
2018-12-08T09:36:54.050Z,8.80
2018-12-08T09:39:20.320Z,8.80
2018-12-08T09:41:46.565Z,8.70
2018-12-08T09:44:12.845Z,8.80
2018-12-08T09:46:39.133Z,8.80
2018-12-08T09:49:05.420Z,8.70
2018-12-08T09:51:31.643Z,8.90
2018-12-08T09:53:57.901Z,8.80
2018-12-08T09:56:24.275Z,8.90
2018-12-08T09:58:50.565Z,9.00
2018-12-08T10:01:16.967Z,8.90
2018-12-08T10:03:44.045Z,8.80
2018-12-08T10:06:10.328Z,8.80
2018-12-08T10:08:36.585Z,8.70
2018-12-08T10:11:02.872Z,8.70
2018-12-08T10:13:29.206Z,8.70
2018-12-08T10:15:55.499Z,8.60
2018-12-08T10:18:21.872Z,8.60
2018-12-08T10:20:48.160Z,8.60
2018-12-08T10:23:14.486Z,8.60
2018-12-08T10:25:40.780Z,8.70
2018-12-08T10:28:07.060Z,8.80
2018-12-08T10:30:33.331Z,8.70
2018-12-08T10:33:00.383Z,8.60
2018-12-08T10:35:27.397Z,8.60
2018-12-08T10:37:53.620Z,8.60
2018-12-08T10:40:19.889Z,8.60
2018-12-08T10:42:46.928Z,8.50
2018-12-08T10:45:13.897Z,8.50
2018-12-08T10:47:40.132Z,8.50
2018-12-08T10:50:06.471Z,8.50
2018-12-08T10:52:32.734Z,8.60
2018-12-08T10:54:59.068Z,8.60
2018-12-08T10:57:26.089Z,8.70
2018-12-08T10:59:52.429Z,8.70
2018-12-08T11:02:24.673Z,8.80
2018-12-08T11:04:50.971Z,8.70
2018-12-08T11:07:17.994Z,8.50
2018-12-08T11:09:45.032Z,8.60
2018-12-08T11:12:12.138Z,8.70
2018-12-08T11:14:39.104Z,8.70
2018-12-08T11:17:05.363Z,8.70
2018-12-08T11:19:31.678Z,8.50
2018-12-08T11:21:57.971Z,8.50
2018-12-08T11:24:24.246Z,8.50
2018-12-08T11:26:52.240Z,8.60
2018-12-08T11:29:18.553Z,8.40
2018-12-08T11:31:44.935Z,8.60
2018-12-08T11:34:11.177Z,8.60
2018-12-08T11:36:37.479Z,8.70
2018-12-08T11:39:03.784Z,8.80
2018-12-08T11:41:30.079Z,8.90
2018-12-08T11:43:56.360Z,8.90
2018-12-08T11:46:22.634Z,8.70
2018-12-08T11:48:48.872Z,8.80
2018-12-08T11:51:15.139Z,8.80
2018-12-08T11:53:41.425Z,8.90
2018-12-08T11:56:07.711Z,9.00
2018-12-08T11:58:34.018Z,9.00
2018-12-08T12:01:00.377Z,9.10
2018-12-08T12:03:28.217Z,9.20
2018-12-08T12:05:54.561Z,9.20
2018-12-08T12:08:20.937Z,9.20
2018-12-08T12:10:47.498Z,9.10
2018-12-08T12:13:13.848Z,9.00
2018-12-08T12:15:40.235Z,9.00
2018-12-08T12:18:06.539Z,9.00
2018-12-08T12:20:32.875Z,9.00
2018-12-08T12:22:59.337Z,9.20
2018-12-08T12:25:25.669Z,9.20
2018-12-08T12:27:52.749Z,9.30
2018-12-08T12:30:19.117Z,9.30
2018-12-08T12:32:45.413Z,9.40
2018-12-08T12:35:11.679Z,9.30
2018-12-08T12:37:38.756Z,9.30
2018-12-08T12:40:05.103Z,9.20
2018-12-08T12:42:31.557Z,9.10
2018-12-08T12:44:57.993Z,9.30
2018-12-08T12:47:25.269Z,9.30
2018-12-08T12:49:52.327Z,9.40
2018-12-08T12:52:20.017Z,9.40
2018-12-08T12:54:46.347Z,9.30
2018-12-08T12:57:12.625Z,9.40
2018-12-08T12:59:40.211Z,9.30
2018-12-08T13:02:07.200Z,9.40
2018-12-08T13:04:33.456Z,9.40
2018-12-08T13:07:00.516Z,9.50
2018-12-08T13:09:26.776Z,9.50
2018-12-08T13:11:53.085Z,9.50
2018-12-08T13:14:20.144Z,9.40
2018-12-08T13:16:47.248Z,9.40
2018-12-08T13:19:13.579Z,9.30
2018-12-08T13:21:39.864Z,9.20
2018-12-08T13:24:07.135Z,9.20
2018-12-08T13:26:33.418Z,9.30
2018-12-08T13:28:59.915Z,9.30
2018-12-08T13:31:26.553Z,9.30
2018-12-08T13:33:53.678Z,9.30
2018-12-08T13:36:20.042Z,9.30
2018-12-08T13:38:46.354Z,9.30
2018-12-08T13:41:12.713Z,9.30
2018-12-08T13:43:39.599Z,9.30
2018-12-08T13:46:05.917Z,9.20
2018-12-08T13:48:32.251Z,9.40
2018-12-08T13:50:58.658Z,9.40
2018-12-08T13:53:24.953Z,9.40
2018-12-08T13:55:51.537Z,9.40
2018-12-08T13:58:17.961Z,9.30
2018-12-08T14:00:45.005Z,9.60
2018-12-08T14:03:12.011Z,9.60
2018-12-08T14:05:38.282Z,9.60
2018-12-08T14:08:04.664Z,9.50
2018-12-08T14:10:31.004Z,9.70
2018-12-08T14:12:57.509Z,9.80
2018-12-08T14:15:24.825Z,9.80
2018-12-08T14:17:51.906Z,9.70
2018-12-08T14:20:19.067Z,9.70
2018-12-08T14:22:45.325Z,9.70
2018-12-08T14:25:11.893Z,9.70
2018-12-08T14:27:38.957Z,9.50
2018-12-08T14:30:05.385Z,9.50
2018-12-08T14:32:32.426Z,9.60
2018-12-08T14:34:59.432Z,9.60
2018-12-08T14:37:25.747Z,9.60
2018-12-08T14:39:52.105Z,9.60
2018-12-08T14:42:19.178Z,9.80
2018-12-08T14:44:46.184Z,9.80
2018-12-08T14:47:12.460Z,9.80
2018-12-08T14:49:40.297Z,9.80
2018-12-08T14:52:07.433Z,9.80
2018-12-08T14:54:33.763Z,9.80
2018-12-08T14:57:00.032Z,9.90
2018-12-08T14:59:26.317Z,9.90
2018-12-08T15:01:52.607Z,9.80
2018-12-08T15:04:19.007Z,9.90
2018-12-08T15:06:45.335Z,9.90
2018-12-08T15:09:12.342Z,9.80
2018-12-08T15:11:44.757Z,9.80
2018-12-08T15:14:17.184Z,9.70
2018-12-08T15:16:44.525Z,9.70
2018-12-08T15:19:10.677Z,9.80
2018-12-08T15:21:36.996Z,9.80
2018-12-08T15:24:03.477Z,9.80
2018-12-08T15:26:29.846Z,9.80
2018-12-08T15:28:56.193Z,9.80
2018-12-08T15:31:22.465Z,9.70
2018-12-08T15:33:49.505Z,9.80
2018-12-08T15:36:16.540Z,9.80
2018-12-08T15:38:42.834Z,9.80
2018-12-08T15:41:09.140Z,9.70
2018-12-08T15:43:35.395Z,9.70
2018-12-08T15:46:01.692Z,9.70
2018-12-08T15:48:27.983Z,9.60
2018-12-08T15:50:54.285Z,9.60
2018-12-08T15:53:20.591Z,9.60
2018-12-08T15:55:46.869Z,9.60
2018-12-08T15:58:13.927Z,9.80
2018-12-08T16:00:41.027Z,9.90
2018-12-08T16:03:07.308Z,9.90
2018-12-08T16:05:34.399Z,9.80
2018-12-08T16:08:00.656Z,9.80
2018-12-08T16:10:27.042Z,9.70
2018-12-08T16:12:53.442Z,9.60
2018-12-08T16:15:19.784Z,9.60
2018-12-08T16:17:46.097Z,9.70
2018-12-08T16:20:12.471Z,9.70
2018-12-08T16:22:38.845Z,9.70
2018-12-08T16:25:05.145Z,9.80
2018-12-08T16:27:31.440Z,9.80
2018-12-08T16:29:57.937Z,9.70
2018-12-08T16:32:24.239Z,9.60
2018-12-08T16:34:50.513Z,9.50
2018-12-08T16:37:16.780Z,9.40
2018-12-08T16:39:43.061Z,9.40
2018-12-08T16:42:10.076Z,9.40
2018-12-08T16:44:36.371Z,9.40
2018-12-08T16:47:02.700Z,9.40
2018-12-08T16:49:28.972Z,9.40
2018-12-08T16:51:55.997Z,9.40
2018-12-08T16:54:22.372Z,9.40
2018-12-08T16:56:48.710Z,9.30
2018-12-08T16:59:15.703Z,9.40
2018-12-08T17:01:42.108Z,9.40
2018-12-08T17:04:08.393Z,9.40
2018-12-08T17:06:34.676Z,9.30
2018-12-08T17:09:00.965Z,9.30
2018-12-08T17:11:27.466Z,9.30
2018-12-08T17:13:54.518Z,9.40
2018-12-08T17:16:20.769Z,9.40
2018-12-08T17:18:47.797Z,9.50
2018-12-08T17:21:14.215Z,9.50
2018-12-08T17:23:40.499Z,9.50
2018-12-08T17:26:06.806Z,9.50
2018-12-08T17:28:33.859Z,9.50
2018-12-08T17:31:07.060Z,9.50
2018-12-08T17:33:39.680Z,9.50
2018-12-08T17:36:06.046Z,9.40
2018-12-08T17:38:33.079Z,9.50
2018-12-08T17:40:59.476Z,9.50
2018-12-08T17:43:27.528Z,9.50
2018-12-08T17:45:53.847Z,9.50
2018-12-08T17:48:20.963Z,9.50
2018-12-08T17:50:47.293Z,9.50
2018-12-08T17:53:13.650Z,9.60
2018-12-08T17:55:39.980Z,9.50
2018-12-08T17:58:06.266Z,9.60
2018-12-08T18:00:32.584Z,9.50
2018-12-08T18:02:59.072Z,9.40
2018-12-08T18:05:26.400Z,9.40
2018-12-08T18:07:52.665Z,9.40
2018-12-08T18:10:18.976Z,9.40
2018-12-08T18:12:46.011Z,9.50
2018-12-08T18:15:13.632Z,9.50
2018-12-08T18:17:39.930Z,9.50
2018-12-08T18:20:07.106Z,9.50
2018-12-08T18:22:33.540Z,9.50
2018-12-08T18:24:59.721Z,9.50
2018-12-08T18:27:26.095Z,9.50
2018-12-08T18:29:52.403Z,9.50
2018-12-08T18:32:18.735Z,9.60
2018-12-08T18:34:45.049Z,9.60
2018-12-08T18:37:11.316Z,9.60
2018-12-08T18:39:37.604Z,9.60
2018-12-08T18:42:03.884Z,9.60
2018-12-08T18:44:30.492Z,9.50
2018-12-08T18:46:56.759Z,9.50
2018-12-08T18:49:23.091Z,9.60
2018-12-08T18:51:50.173Z,9.60
2018-12-08T18:54:16.492Z,9.60
2018-12-08T18:56:43.528Z,9.70
2018-12-08T18:59:10.469Z,9.70
2018-12-08T19:01:37.548Z,9.80
2018-12-08T19:04:03.878Z,9.80
2018-12-08T19:06:30.872Z,9.80
2018-12-08T19:08:57.179Z,9.80
2018-12-08T19:11:24.456Z,9.70
2018-12-08T19:13:52.270Z,9.80
2018-12-08T19:16:18.663Z,9.80
2018-12-08T19:18:44.972Z,9.70
2018-12-08T19:21:12.067Z,9.70
2018-12-08T19:23:43.706Z,9.70
2018-12-08T19:26:05.583Z,9.70
2018-12-08T19:28:31.875Z,9.70
2018-12-08T19:30:58.342Z,9.80
2018-12-08T19:33:24.647Z,9.80
2018-12-08T19:35:50.992Z,9.80
2018-12-08T19:38:17.942Z,9.80
2018-12-08T19:40:44.310Z,9.80
2018-12-08T19:43:10.657Z,9.80
2018-12-08T19:45:37.799Z,9.70
2018-12-08T19:48:04.226Z,9.70
2018-12-08T19:50:30.892Z,9.70
2018-12-08T19:52:57.226Z,9.70
2018-12-08T19:55:25.175Z,9.80
2018-12-08T19:57:51.522Z,9.70
2018-12-08T20:00:17.941Z,9.60
2018-12-08T20:02:44.315Z,9.60
2018-12-08T20:05:10.688Z,9.60
2018-12-08T20:07:37.037Z,9.80
2018-12-08T20:10:03.389Z,9.80
2018-12-08T20:12:29.759Z,9.80
2018-12-08T20:14:56.205Z,9.80
2018-12-08T20:17:22.714Z,9.70
2018-12-08T20:19:49.027Z,9.70
2018-12-08T20:22:16.122Z,9.60
2018-12-08T20:24:42.414Z,9.60
2018-12-08T20:27:08.998Z,9.70
2018-12-08T20:29:35.432Z,9.60
2018-12-08T20:32:02.511Z,9.40
2018-12-08T20:34:29.985Z,9.50
2018-12-08T20:36:56.373Z,9.50
2018-12-08T20:39:22.778Z,9.60
2018-12-08T20:41:49.118Z,9.40
2018-12-08T20:44:16.168Z,9.50
2018-12-08T20:46:42.498Z,9.40
2018-12-08T20:49:08.822Z,9.50
2018-12-08T20:51:35.098Z,9.40
2018-12-08T20:54:01.352Z,9.40
2018-12-08T20:56:27.660Z,9.50
2018-12-08T20:58:54.921Z,9.50
2018-12-08T21:01:21.292Z,9.60
2018-12-08T21:03:47.619Z,9.60
2018-12-08T21:06:13.905Z,9.70
2018-12-08T21:08:40.242Z,9.70
2018-12-08T21:11:06.765Z,9.70
2018-12-08T21:13:33.151Z,9.70
2018-12-08T21:16:00.132Z,9.60
2018-12-08T21:18:26.571Z,9.70
2018-12-08T21:20:52.851Z,9.80
2018-12-08T21:23:19.170Z,9.90
2018-12-08T21:25:45.472Z,10.00
2018-12-08T21:28:12.772Z,10.00
2018-12-08T21:30:39.168Z,10.10
2018-12-08T21:33:05.540Z,10.00
2018-12-08T21:35:31.787Z,10.10
2018-12-08T21:37:58.074Z,10.10
2018-12-08T21:40:24.488Z,10.20
2018-12-08T21:42:50.740Z,10.20
2018-12-08T21:45:17.819Z,10.30
2018-12-08T21:47:44.062Z,10.20
2018-12-08T21:50:10.316Z,10.30
2018-12-08T21:52:36.585Z,10.30
2018-12-08T21:55:03.594Z,10.40
2018-12-08T21:57:30.669Z,10.50
2018-12-08T21:59:57.698Z,10.50
2018-12-08T22:02:24.793Z,10.50
2018-12-08T22:04:51.084Z,10.50
2018-12-08T22:07:17.379Z,10.50
2018-12-08T22:09:43.646Z,10.40
2018-12-08T22:12:10.692Z,10.50
2018-12-08T22:14:38.638Z,10.40
2018-12-08T22:17:05.263Z,10.50
2018-12-08T22:19:31.523Z,10.50
2018-12-08T22:21:58.553Z,10.50
2018-12-08T22:24:24.877Z,10.50
2018-12-08T22:26:51.149Z,10.50
2018-12-08T22:29:17.477Z,10.40
2018-12-08T22:31:43.857Z,10.40
2018-12-08T22:34:10.873Z,10.40
2018-12-08T22:36:37.163Z,10.40
2018-12-08T22:39:04.205Z,10.30
2018-12-08T22:41:30.744Z,10.30
2018-12-08T22:43:57.740Z,10.30
2018-12-08T22:46:24.000Z,10.30
2018-12-08T22:48:50.508Z,10.30
2018-12-08T22:51:16.785Z,10.30
2018-12-08T22:53:44.476Z,10.30
2018-12-08T22:56:10.730Z,10.30
2018-12-08T22:58:36.989Z,10.20
2018-12-08T23:01:03.280Z,10.30
2018-12-08T23:03:29.548Z,10.30
2018-12-08T23:05:55.818Z,10.40
2018-12-08T23:08:22.075Z,10.40
2018-12-08T23:10:48.348Z,10.40
2018-12-08T23:13:14.633Z,10.30
2018-12-08T23:15:40.926Z,10.30
2018-12-08T23:18:07.338Z,10.30
2018-12-08T23:20:34.348Z,10.20
2018-12-08T23:23:00.599Z,10.30
2018-12-08T23:25:27.607Z,10.40
2018-12-08T23:27:53.969Z,10.30
2018-12-08T23:30:20.357Z,10.40
2018-12-08T23:32:46.645Z,10.50
2018-12-08T23:35:13.013Z,10.50
2018-12-08T23:37:40.115Z,10.60
2018-12-08T23:40:07.177Z,10.50
2018-12-08T23:42:33.660Z,10.50
2018-12-08T23:44:59.933Z,10.40
2018-12-08T23:47:26.917Z,10.50
2018-12-08T23:49:53.210Z,10.50
2018-12-08T23:52:19.506Z,10.60
2018-12-08T23:54:45.738Z,10.50
2018-12-08T23:57:11.998Z,10.50
2018-12-08T23:59:38.977Z,10.50
